createdAt,value
2018-09-29T00:00:24.294Z,0
2018-09-29T00:01:24.275Z,0
2018-09-29T00:02:24.262Z,0
2018-09-29T00:03:23.990Z,0
2018-09-29T00:04:23.974Z,0
2018-09-29T00:05:23.961Z,0
2018-09-29T00:06:24.203Z,0
2018-09-29T00:07:24.184Z,0
2018-09-29T00:08:24.173Z,0
2018-09-29T00:09:24.152Z,0
2018-09-29T00:10:24.431Z,0
2018-09-29T00:11:23.864Z,0
2018-09-29T00:12:24.107Z,0
2018-09-29T00:13:24.087Z,0
2018-09-29T00:14:24.073Z,0
2018-09-29T00:15:23.801Z,0
2018-09-29T00:16:23.790Z,0
2018-09-29T00:17:24.026Z,0
2018-09-29T00:18:23.754Z,0
2018-09-29T00:19:23.740Z,0
2018-09-29T00:20:23.724Z,0
2018-09-29T00:21:23.961Z,0
2018-09-29T00:22:23.945Z,0
2018-09-29T00:23:23.933Z,0
2018-09-29T00:24:23.914Z,0
2018-09-29T00:25:23.645Z,0
2018-09-29T00:26:23.887Z,0
2018-09-29T00:27:23.869Z,0
2018-09-29T00:28:23.596Z,0
2018-09-29T00:29:23.859Z,0
2018-09-29T00:30:23.820Z,0
2018-09-29T00:31:23.809Z,0
2018-09-29T00:32:23.787Z,0
2018-09-29T00:33:23.770Z,0
2018-09-29T00:34:23.754Z,0
2018-09-29T00:35:23.738Z,0
2018-09-29T00:36:23.725Z,0
2018-09-29T00:37:23.709Z,0
2018-09-29T00:38:23.694Z,0
2018-09-29T00:39:23.676Z,0
2018-09-29T00:40:23.664Z,0
2018-09-29T00:41:23.651Z,0
2018-09-29T00:42:23.376Z,0
2018-09-29T00:43:23.609Z,0
2018-09-29T00:44:23.597Z,0
2018-09-29T00:45:23.583Z,0
2018-09-29T00:46:23.575Z,0
2018-09-29T00:47:23.548Z,0
2018-09-29T00:48:23.535Z,0
2018-09-29T00:49:23.517Z,0
2018-09-29T00:50:23.506Z,0
2018-09-29T00:51:23.489Z,0
2018-09-29T00:52:23.469Z,0
2018-09-29T00:53:23.457Z,0
2018-09-29T00:54:23.462Z,0
2018-09-29T00:55:23.429Z,0
2018-09-29T00:56:23.152Z,0
2018-09-29T00:57:23.400Z,0
2018-09-29T00:58:23.377Z,0
2018-09-29T00:59:23.360Z,0
2018-09-29T01:00:23.089Z,0
2018-09-29T01:01:23.324Z,0
2018-09-29T01:02:23.309Z,0
2018-09-29T01:03:23.294Z,0
2018-09-29T01:04:23.281Z,0
2018-09-29T01:05:23.262Z,0
2018-09-29T01:06:23.250Z,0
2018-09-29T01:07:23.232Z,0
2018-09-29T01:08:22.961Z,0
2018-09-29T01:09:23.200Z,0
2018-09-29T01:10:22.927Z,0
2018-09-29T01:11:23.165Z,0
2018-09-29T01:12:23.150Z,0
2018-09-29T01:13:23.135Z,0
2018-09-29T01:14:23.123Z,0
2018-09-29T01:15:22.848Z,0
2018-09-29T01:16:23.086Z,0
2018-09-29T01:17:23.071Z,0
2018-09-29T01:18:23.054Z,0
2018-09-29T01:19:23.038Z,0
2018-09-29T01:20:22.767Z,0
2018-09-29T01:21:23.004Z,0
2018-09-29T01:22:22.990Z,0
2018-09-29T01:23:22.977Z,0
2018-09-29T01:24:22.969Z,0
2018-09-29T01:25:22.942Z,0
2018-09-29T01:26:22.926Z,0
2018-09-29T01:27:22.908Z,0
2018-09-29T01:28:22.898Z,0
2018-09-29T01:29:22.878Z,0
2018-09-29T01:30:22.861Z,0
2018-09-29T01:31:22.589Z,0
2018-09-29T01:32:22.829Z,0
2018-09-29T01:33:22.813Z,0
2018-09-29T01:34:22.796Z,0
2018-09-29T01:35:22.784Z,0
2018-09-29T01:36:22.513Z,0
2018-09-29T01:37:22.753Z,0
2018-09-29T01:38:22.734Z,0
2018-09-29T01:39:22.723Z,0
2018-09-29T01:40:22.705Z,0
2018-09-29T01:41:22.686Z,0
2018-09-29T01:42:22.420Z,0
2018-09-29T01:43:22.651Z,0
2018-09-29T01:44:22.679Z,0
2018-09-29T01:45:22.625Z,0
2018-09-29T01:46:22.604Z,0
2018-09-29T01:47:22.589Z,0
2018-09-29T01:48:22.570Z,0
2018-09-29T01:49:22.552Z,0
2018-09-29T01:50:22.538Z,0
2018-09-29T01:51:22.523Z,0
2018-09-29T01:52:22.508Z,0
2018-09-29T01:53:22.235Z,0
2018-09-29T01:54:22.473Z,0
2018-09-29T01:55:22.456Z,0
2018-09-29T01:56:22.445Z,0
2018-09-29T01:57:22.169Z,0
2018-09-29T01:58:22.167Z,0
2018-09-29T01:59:22.402Z,0
2018-09-29T02:00:22.120Z,0
2018-09-29T02:01:22.362Z,0
2018-09-29T02:02:22.087Z,0
2018-09-29T02:03:22.325Z,0
2018-09-29T02:04:22.311Z,0
2018-09-29T02:05:22.292Z,0
2018-09-29T02:06:22.282Z,0
2018-09-29T02:07:22.264Z,0
2018-09-29T02:08:22.246Z,0
2018-09-29T02:09:22.234Z,0
2018-09-29T02:10:22.221Z,0
2018-09-29T02:11:22.208Z,0
2018-09-29T02:12:22.183Z,0
2018-09-29T02:13:22.163Z,0
2018-09-29T02:14:22.150Z,0
2018-09-29T02:15:21.876Z,0
2018-09-29T02:16:22.115Z,0
2018-09-29T02:17:21.847Z,0
2018-09-29T02:18:22.080Z,0
2018-09-29T02:19:22.068Z,0
2018-09-29T02:20:22.052Z,0
2018-09-29T02:21:22.036Z,0
2018-09-29T02:22:22.017Z,0
2018-09-29T02:23:22.006Z,0
2018-09-29T02:24:21.984Z,0
2018-09-29T02:25:21.968Z,0
2018-09-29T02:26:21.956Z,0
2018-09-29T02:27:21.936Z,0
2018-09-29T02:28:21.919Z,0
2018-09-29T02:29:21.908Z,0
2018-09-29T02:30:21.889Z,0
2018-09-29T02:31:21.879Z,0
2018-09-29T02:32:21.602Z,0
2018-09-29T02:33:21.838Z,0
2018-09-29T02:34:21.569Z,0
2018-09-29T02:35:21.813Z,0
2018-09-29T02:36:21.538Z,0
2018-09-29T02:37:21.775Z,0
2018-09-29T02:38:21.504Z,0
2018-09-29T02:39:21.498Z,0
2018-09-29T02:40:21.476Z,0
2018-09-29T02:41:21.710Z,0
2018-09-29T02:42:21.695Z,0
2018-09-29T02:43:21.424Z,0
2018-09-29T02:44:21.661Z,0
2018-09-29T02:45:21.643Z,0
2018-09-29T02:46:21.631Z,0
2018-09-29T02:47:21.614Z,0
2018-09-29T02:48:21.600Z,0
2018-09-29T02:49:21.582Z,0
2018-09-29T02:50:21.578Z,0
2018-09-29T02:51:21.562Z,0.28
2018-09-29T02:52:21.533Z,1.14
2018-09-29T02:53:21.522Z,1.7
2018-09-29T02:54:21.504Z,2.08
2018-09-29T02:55:21.482Z,2.27
2018-09-29T02:56:21.468Z,2.08
2018-09-29T02:57:21.452Z,2.46
2018-09-29T02:58:21.445Z,2.65
2018-09-29T02:59:21.420Z,2.84
2018-09-29T03:00:21.402Z,3.12
2018-09-29T03:01:21.391Z,3.41
2018-09-29T03:02:21.374Z,3.12
2018-09-29T03:03:21.391Z,1.61
2018-09-29T03:04:21.340Z,0.66
2018-09-29T03:05:21.318Z,0
2018-09-29T03:06:21.316Z,0
2018-09-29T03:07:21.451Z,0
2018-09-29T03:08:21.272Z,0
2018-09-29T03:09:21.253Z,0
2018-09-29T03:10:21.238Z,0
2018-09-29T03:11:21.226Z,0
2018-09-29T03:12:21.213Z,0
2018-09-29T03:13:21.192Z,0
2018-09-29T03:14:21.171Z,0
2018-09-29T03:15:20.901Z,0
2018-09-29T03:16:21.141Z,0
2018-09-29T03:17:21.124Z,0
2018-09-29T03:18:20.853Z,0
2018-09-29T03:19:20.858Z,0
2018-09-29T03:20:21.084Z,0
2018-09-29T03:21:21.061Z,0
2018-09-29T03:22:21.050Z,0
2018-09-29T03:23:20.770Z,0
2018-09-29T03:24:21.010Z,0
2018-09-29T03:25:20.994Z,0
2018-09-29T03:26:20.975Z,0
2018-09-29T03:27:20.964Z,0
2018-09-29T03:28:20.687Z,0
2018-09-29T03:29:20.698Z,0
2018-09-29T03:30:20.658Z,0
2018-09-29T03:31:20.932Z,0
2018-09-29T03:32:20.880Z,0
2018-09-29T03:33:20.863Z,0
2018-09-29T03:34:20.847Z,0
2018-09-29T03:35:20.828Z,0
2018-09-29T03:36:20.822Z,0
2018-09-29T03:37:20.797Z,0
2018-09-29T03:38:20.777Z,0
2018-09-29T03:39:20.758Z,0
2018-09-29T03:40:20.763Z,0
2018-09-29T03:41:20.730Z,0
2018-09-29T03:42:20.709Z,0
2018-09-29T03:43:20.703Z,0
2018-09-29T03:44:20.675Z,0
2018-09-29T03:45:20.405Z,0
2018-09-29T03:46:20.646Z,0
2018-09-29T03:47:20.626Z,0
2018-09-29T03:48:20.357Z,0
2018-09-29T03:49:20.594Z,0
2018-09-29T03:50:20.319Z,0
2018-09-29T03:51:20.597Z,0
2018-09-29T03:52:20.550Z,0
2018-09-29T03:53:20.533Z,0
2018-09-29T03:54:20.514Z,0
2018-09-29T03:55:20.496Z,0
2018-09-29T03:56:20.480Z,0
2018-09-29T03:57:20.457Z,0
2018-09-29T03:58:20.445Z,0
2018-09-29T03:59:20.430Z,0
2018-09-29T04:00:20.412Z,0
2018-09-29T04:01:20.402Z,0
2018-09-29T04:02:20.122Z,0
2018-09-29T04:03:20.360Z,0
2018-09-29T04:04:20.340Z,0
2018-09-29T04:05:20.327Z,0
2018-09-29T04:06:20.313Z,0
2018-09-29T04:07:20.036Z,0
2018-09-29T04:08:20.273Z,0
2018-09-29T04:09:20.256Z,0
2018-09-29T04:10:20.240Z,0
2018-09-29T04:11:20.230Z,0
2018-09-29T04:12:20.207Z,0
2018-09-29T04:13:19.934Z,0
2018-09-29T04:14:20.175Z,0
2018-09-29T04:15:19.900Z,0
2018-09-29T04:16:20.138Z,0
2018-09-29T04:17:20.127Z,0
2018-09-29T04:18:19.851Z,0
2018-09-29T04:19:20.088Z,0
2018-09-29T04:20:20.070Z,0
2018-09-29T04:21:19.800Z,0
2018-09-29T04:22:20.043Z,0
2018-09-29T04:23:20.021Z,0
2018-09-29T04:24:20.010Z,0
2018-09-29T04:25:19.994Z,0
2018-09-29T04:26:19.717Z,0
2018-09-29T04:27:19.957Z,0
2018-09-29T04:28:19.935Z,0
2018-09-29T04:29:19.918Z,0
2018-09-29T04:30:19.649Z,0
2018-09-29T04:31:19.631Z,0
2018-09-29T04:32:19.866Z,0
2018-09-29T04:33:19.853Z,0
2018-09-29T04:34:19.833Z,0
2018-09-29T04:35:19.563Z,0
2018-09-29T04:36:19.547Z,0
2018-09-29T04:37:19.532Z,0
2018-09-29T04:38:19.768Z,0
2018-09-29T04:39:19.495Z,0
2018-09-29T04:40:19.733Z,0
2018-09-29T04:41:19.714Z,0
2018-09-29T04:42:19.710Z,0
2018-09-29T04:43:19.866Z,0
2018-09-29T04:44:19.668Z,0
2018-09-29T04:45:19.645Z,0
2018-09-29T04:46:19.636Z,0
2018-09-29T04:47:19.616Z,0
2018-09-29T04:48:19.599Z,0
2018-09-29T04:49:19.831Z,0
2018-09-29T04:50:19.561Z,0
2018-09-29T04:51:19.547Z,0
2018-09-29T04:52:19.556Z,0
2018-09-29T04:53:19.518Z,0
2018-09-29T04:54:19.496Z,0
2018-09-29T04:55:19.477Z,0
2018-09-29T04:56:19.460Z,0
2018-09-29T04:57:19.447Z,0
2018-09-29T04:58:19.428Z,0
2018-09-29T04:59:19.410Z,0
2018-09-29T05:00:19.392Z,0
2018-09-29T05:01:19.120Z,0
2018-09-29T05:02:19.358Z,0
2018-09-29T05:03:19.100Z,0
2018-09-29T05:04:19.071Z,0
2018-09-29T05:05:19.306Z,0
2018-09-29T05:06:19.043Z,0
2018-09-29T05:07:19.276Z,0
2018-09-29T05:08:19.268Z,0
2018-09-29T05:09:18.986Z,0
2018-09-29T05:10:19.222Z,0
2018-09-29T05:11:18.952Z,0
2018-09-29T05:12:19.190Z,0
2018-09-29T05:13:19.172Z,0
2018-09-29T05:14:19.156Z,0
2018-09-29T05:15:19.135Z,0
2018-09-29T05:16:19.119Z,0
2018-09-29T05:17:19.107Z,0
2018-09-29T05:18:19.095Z,0
2018-09-29T05:19:19.068Z,0
2018-09-29T05:20:19.057Z,0
2018-09-29T05:21:19.039Z,0
2018-09-29T05:22:19.020Z,0
2018-09-29T05:23:19.207Z,0
2018-09-29T05:24:18.982Z,0
2018-09-29T05:25:18.712Z,0
2018-09-29T05:26:18.952Z,0
2018-09-29T05:27:18.686Z,0
2018-09-29T05:28:18.663Z,0
2018-09-29T05:29:18.898Z,0
2018-09-29T05:30:18.881Z,0
2018-09-29T05:31:18.866Z,0
2018-09-29T05:32:18.848Z,0
2018-09-29T05:33:18.830Z,0
2018-09-29T05:34:18.820Z,0
2018-09-29T05:35:18.800Z,0
2018-09-29T05:36:18.869Z,0
2018-09-29T05:37:18.512Z,0
2018-09-29T05:38:18.876Z,0
2018-09-29T05:39:18.728Z,0
2018-09-29T05:40:18.715Z,0
2018-09-29T05:41:18.697Z,0
2018-09-29T05:42:18.678Z,0
2018-09-29T05:43:18.663Z,0
2018-09-29T05:44:18.649Z,0
2018-09-29T05:45:18.374Z,0
2018-09-29T05:46:18.617Z,0
2018-09-29T05:47:18.594Z,0
2018-09-29T05:48:18.816Z,0
2018-09-29T05:49:18.562Z,0
2018-09-29T05:50:18.543Z,0
2018-09-29T05:51:18.531Z,0
2018-09-29T05:52:18.515Z,0
2018-09-29T05:53:18.492Z,0
2018-09-29T05:54:18.478Z,0
2018-09-29T05:55:18.459Z,0
2018-09-29T05:56:18.444Z,0
2018-09-29T05:57:18.426Z,0
2018-09-29T05:58:18.415Z,0
2018-09-29T05:59:18.392Z,0
2018-09-29T06:00:18.625Z,0
2018-09-29T06:01:18.108Z,0
2018-09-29T06:02:18.346Z,0
2018-09-29T06:03:18.325Z,0
2018-09-29T06:04:18.310Z,0
2018-09-29T06:05:18.069Z,0
2018-09-29T06:06:18.277Z,0
2018-09-29T06:07:18.540Z,0
2018-09-29T06:08:17.993Z,0
2018-09-29T06:09:17.971Z,0
2018-09-29T06:10:18.211Z,0
2018-09-29T06:11:17.940Z,0
2018-09-29T06:12:18.180Z,0
2018-09-29T06:13:18.437Z,0
2018-09-29T06:14:18.195Z,0
2018-09-29T06:15:18.133Z,0
2018-09-29T06:16:18.111Z,0
2018-09-29T06:17:18.099Z,0
2018-09-29T06:18:18.078Z,0
2018-09-29T06:19:18.066Z,0
2018-09-29T06:20:18.041Z,0
2018-09-29T06:21:18.078Z,0
2018-09-29T06:22:18.124Z,0
2018-09-29T06:23:17.739Z,0
2018-09-29T06:24:17.977Z,0
2018-09-29T06:25:17.707Z,0
2018-09-29T06:26:17.946Z,0
2018-09-29T06:27:17.930Z,0
2018-09-29T06:28:17.914Z,0
2018-09-29T06:29:17.898Z,0
2018-09-29T06:30:17.879Z,0
2018-09-29T06:31:17.862Z,0
2018-09-29T06:32:17.845Z,0
2018-09-29T06:33:17.830Z,0
2018-09-29T06:34:17.959Z,0
2018-09-29T06:35:17.545Z,0
2018-09-29T06:36:17.782Z,0
2018-09-29T06:37:17.765Z,0
2018-09-29T06:38:17.541Z,0
2018-09-29T06:39:17.477Z,0
2018-09-29T06:40:17.715Z,0
2018-09-29T06:41:17.445Z,0
2018-09-29T06:42:17.431Z,0
2018-09-29T06:43:17.667Z,0
2018-09-29T06:44:17.652Z,0
2018-09-29T06:45:17.639Z,0
2018-09-29T06:46:17.619Z,0
2018-09-29T06:47:17.604Z,0
2018-09-29T06:48:17.590Z,0
2018-09-29T06:49:17.570Z,0
2018-09-29T06:50:17.553Z,0
2018-09-29T06:51:17.300Z,0
2018-09-29T06:52:17.571Z,0
2018-09-29T06:53:17.544Z,0
2018-09-29T06:54:17.521Z,0
2018-09-29T06:55:17.479Z,0
2018-09-29T06:56:17.465Z,0
2018-09-29T06:57:17.455Z,0
2018-09-29T06:58:17.434Z,0
2018-09-29T06:59:17.164Z,0
2018-09-29T07:00:17.405Z,0
2018-09-29T07:01:17.133Z,0
2018-09-29T07:02:17.116Z,0
2018-09-29T07:03:17.102Z,0
2018-09-29T07:04:17.336Z,0
2018-09-29T07:05:17.317Z,0
2018-09-29T07:06:17.300Z,0
2018-09-29T07:07:17.286Z,0
2018-09-29T07:08:17.015Z,0
2018-09-29T07:09:16.999Z,0
2018-09-29T07:10:17.242Z,0
2018-09-29T07:11:17.225Z,0
2018-09-29T07:12:17.208Z,0
2018-09-29T07:13:17.021Z,0
2018-09-29T07:14:17.187Z,0
2018-09-29T07:15:17.168Z,0
2018-09-29T07:16:17.156Z,0
2018-09-29T07:17:17.144Z,0
2018-09-29T07:18:17.175Z,0
2018-09-29T07:19:16.850Z,0
2018-09-29T07:20:17.087Z,0
2018-09-29T07:21:16.818Z,0
2018-09-29T07:22:17.062Z,0
2018-09-29T07:23:17.045Z,0
2018-09-29T07:24:17.029Z,0
2018-09-29T07:25:17.082Z,0
2018-09-29T07:26:16.998Z,0
2018-09-29T07:27:16.990Z,0
2018-09-29T07:28:16.976Z,0
2018-09-29T07:29:16.948Z,0
2018-09-29T07:30:16.677Z,0
2018-09-29T07:31:16.716Z,0
2018-09-29T07:32:16.903Z,0
2018-09-29T07:33:16.896Z,0
2018-09-29T07:34:16.871Z,0
2018-09-29T07:35:16.861Z,0
2018-09-29T07:36:16.589Z,0
2018-09-29T07:37:16.576Z,0
2018-09-29T07:38:16.825Z,0
2018-09-29T07:39:16.802Z,0
2018-09-29T07:40:16.787Z,0
2018-09-29T07:41:16.767Z,0
2018-09-29T07:42:16.503Z,0
2018-09-29T07:43:16.744Z,0
2018-09-29T07:44:16.735Z,0
2018-09-29T07:45:16.712Z,0
2018-09-29T07:46:16.699Z,0
2018-09-29T07:47:16.680Z,0
2018-09-29T07:48:16.671Z,0
2018-09-29T07:49:16.880Z,1.14
2018-09-29T07:50:16.640Z,2.18
2018-09-29T07:51:16.370Z,2.56
2018-09-29T07:52:16.609Z,3.03
2018-09-29T07:53:16.597Z,2.47
2018-09-29T07:54:16.580Z,2.94
2018-09-29T07:55:16.564Z,4.27
2018-09-29T07:56:16.643Z,5.02
2018-09-29T07:57:16.539Z,6.26
2018-09-29T07:58:16.267Z,6.82
2018-09-29T07:59:16.514Z,7.49
2018-09-29T08:00:16.497Z,8.15
2018-09-29T08:01:16.492Z,9.2
2018-09-29T08:02:16.469Z,9.95
2018-09-29T08:03:16.453Z,11.1
2018-09-29T08:04:16.438Z,12.99
2018-09-29T08:05:16.427Z,16.79
2018-09-29T08:06:16.499Z,18.98
2018-09-29T08:07:16.400Z,21.15
2018-09-29T08:08:16.387Z,22.49
2018-09-29T08:09:16.373Z,25.81
2018-09-29T08:10:16.364Z,29.6
2018-09-29T08:11:16.347Z,31.31
2018-09-29T08:12:16.441Z,34.36
2018-09-29T08:13:16.315Z,36.36
2018-09-29T08:14:16.048Z,36.83
2018-09-29T08:15:16.293Z,36.26
2018-09-29T08:16:16.278Z,37.97
2018-09-29T08:17:16.270Z,40.82
2018-09-29T08:18:16.248Z,44.34
2018-09-29T08:19:16.233Z,49.01
2018-09-29T08:20:15.967Z,51.39
2018-09-29T08:21:16.215Z,51.29
2018-09-29T08:22:16.199Z,52.91
2018-09-29T08:23:15.932Z,57.37
2018-09-29T08:24:15.965Z,68.1
2018-09-29T08:25:16.159Z,70.67
2018-09-29T08:26:16.147Z,72.56
2018-09-29T08:27:15.877Z,69.81
2018-09-29T08:28:16.116Z,69.34
2018-09-29T08:29:16.115Z,75.04
2018-09-29T08:30:16.095Z,79.31
2018-09-29T08:31:15.823Z,80.35
2018-09-29T08:32:16.163Z,80.07
2018-09-29T08:33:16.058Z,81.4
2018-09-29T08:34:16.045Z,82.54
2018-09-29T08:35:16.030Z,84.82
2018-09-29T08:36:16.015Z,85.81
2018-09-29T08:37:16.022Z,85.01
2018-09-29T08:38:15.993Z,85.2
2018-09-29T08:39:15.724Z,82.54
2018-09-29T08:40:15.968Z,82.45
2018-09-29T08:41:15.701Z,84.39
2018-09-29T08:42:15.946Z,84.39
2018-09-29T08:43:15.928Z,83.62
2018-09-29T08:44:15.982Z,82.96
2018-09-29T08:45:15.912Z,87.34
2018-09-29T08:46:15.896Z,91.8
2018-09-29T08:47:15.883Z,96.17
2018-09-29T08:48:15.867Z,93.13
2018-09-29T08:49:15.603Z,93.23
2018-09-29T08:50:15.845Z,94.27
2018-09-29T08:51:15.838Z,95.7
2018-09-29T08:52:15.575Z,95.7
2018-09-29T08:53:15.984Z,97.41
2018-09-29T08:54:15.793Z,95.6
2018-09-29T08:55:15.786Z,92.66
2018-09-29T08:56:15.774Z,91.52
2018-09-29T08:57:15.768Z,92.27
2018-09-29T08:58:15.747Z,96.22
2018-09-29T08:59:15.737Z,97.08
2018-09-29T09:00:15.723Z,99.99
2018-09-29T09:01:15.711Z,99.99
2018-09-29T09:02:15.445Z,98.22
2018-09-29T09:03:15.437Z,99.99
2018-09-29T09:04:15.683Z,99.99
2018-09-29T09:05:15.664Z,99.99
2018-09-29T09:06:15.654Z,99.99
2018-09-29T09:07:15.386Z,99.99
2018-09-29T09:08:15.634Z,99.99
2018-09-29T09:09:15.734Z,99.99
2018-09-29T09:10:15.611Z,99.99
2018-09-29T09:11:15.597Z,99.99
2018-09-29T09:12:15.585Z,99.99
2018-09-29T09:13:15.320Z,99.99
2018-09-29T09:14:15.561Z,99.99
2018-09-29T09:15:15.554Z,99.99
2018-09-29T09:16:15.538Z,99.99
2018-09-29T09:17:15.273Z,99.99
2018-09-29T09:18:15.514Z,99.99
2018-09-29T09:19:15.508Z,99.99
2018-09-29T09:20:15.495Z,99.99
2018-09-29T09:21:15.486Z,99.99
2018-09-29T09:22:15.469Z,99.99
2018-09-29T09:23:15.643Z,99.99
2018-09-29T09:24:15.598Z,99.99
2018-09-29T09:25:15.187Z,99.99
2018-09-29T09:26:15.428Z,99.99
2018-09-29T09:27:15.430Z,99.99
2018-09-29T09:28:15.406Z,99.99
2018-09-29T09:29:15.395Z,99.99
2018-09-29T09:30:15.489Z,99.99
2018-09-29T09:31:15.118Z,99.99
2018-09-29T09:32:15.365Z,99.99
2018-09-29T09:35:19.978Z,99.99
2018-09-29T09:36:19.968Z,99.99
2018-09-29T09:37:19.949Z,99.99
2018-09-29T09:38:19.939Z,99.99
2018-09-29T09:39:19.935Z,99.99
2018-09-29T09:40:19.665Z,99.99
2018-09-29T09:41:19.911Z,99.99
2018-09-29T09:42:19.905Z,99.99
2018-09-29T09:43:19.936Z,99.99
2018-09-29T09:44:19.622Z,99.99
2018-09-29T09:45:19.934Z,99.99
2018-09-29T09:46:19.862Z,99.99
2018-09-29T09:47:19.861Z,99.99
2018-09-29T09:48:19.836Z,99.99
2018-09-29T09:49:19.914Z,99.99
2018-09-29T09:50:19.563Z,99.99
2018-09-29T09:51:19.809Z,99.99
2018-09-29T09:52:19.802Z,99.99
2018-09-29T09:53:19.787Z,99.99
2018-09-29T09:54:19.774Z,99.99
2018-09-29T09:55:19.772Z,99.99
2018-09-29T09:56:19.756Z,99.99
2018-09-29T09:57:19.489Z,99.99
2018-09-29T09:58:19.736Z,99.99
2018-09-29T09:59:19.726Z,99.99
2018-09-29T10:00:19.718Z,99.99
2018-09-29T10:01:19.704Z,99.99
2018-09-29T10:02:19.694Z,99.99
2018-09-29T10:03:19.686Z,99.99
2018-09-29T10:04:19.419Z,99.99
2018-09-29T10:05:19.664Z,99.99
2018-09-29T10:06:19.675Z,99.99
2018-09-29T10:07:19.645Z,97.37
2018-09-29T10:08:19.635Z,96.7
2018-09-29T10:09:19.626Z,97.27
2018-09-29T10:10:19.361Z,99.56
2018-09-29T10:11:19.612Z,96.32
2018-09-29T10:12:19.597Z,93.27
2018-09-29T10:13:19.586Z,90.98
2018-09-29T10:14:19.580Z,86.11
2018-09-29T10:15:19.569Z,87.4
2018-09-29T10:16:19.563Z,86.63
2018-09-29T10:17:19.337Z,85.39
2018-09-29T10:18:19.541Z,82.53
2018-09-29T10:19:19.277Z,82.63
2018-09-29T10:20:19.266Z,81.44
2018-09-29T10:21:19.514Z,84.01
2018-09-29T10:22:19.507Z,83.06
2018-09-29T10:23:19.497Z,88.02
2018-09-29T10:24:19.231Z,86.78
2018-09-29T10:25:19.477Z,84.2
2018-09-29T10:26:19.212Z,82.2
2018-09-29T10:27:19.462Z,78.39
2018-09-29T10:28:19.197Z,82.49
2018-09-29T10:29:19.444Z,83.83
2018-09-29T10:30:19.440Z,80.11
2018-09-29T10:31:19.426Z,76.67
2018-09-29T10:32:19.414Z,79.25
2018-09-29T10:33:19.408Z,74.86
2018-09-29T10:34:19.216Z,75.34
2018-09-29T10:35:19.394Z,78.67
2018-09-29T10:36:19.526Z,80.96
2018-09-29T10:37:19.373Z,96.8
2018-09-29T10:38:19.363Z,89.74
2018-09-29T10:39:19.098Z,85.83
2018-09-29T10:40:19.344Z,84.3
2018-09-29T10:41:19.336Z,81.35
2018-09-29T10:42:19.085Z,78.3
2018-09-29T10:43:19.317Z,75.09
2018-09-29T10:44:19.659Z,73.75
2018-09-29T10:45:19.045Z,73.75
2018-09-29T10:46:19.041Z,72.8
2018-09-29T10:47:19.028Z,71.75
2018-09-29T10:48:19.018Z,74.13
2018-09-29T10:49:19.267Z,73.56
2018-09-29T10:50:19.258Z,77.57
2018-09-29T10:51:19.252Z,77.67
2018-09-29T10:52:19.238Z,81.96
2018-09-29T10:53:19.232Z,83.58
2018-09-29T10:54:19.224Z,75.95
2018-09-29T10:55:19.217Z,74.71
2018-09-29T10:56:18.948Z,76.14
2018-09-29T10:57:19.199Z,78.52
2018-09-29T10:58:18.938Z,78.14
2018-09-29T10:59:19.452Z,77.7
2018-09-29T11:00:19.175Z,74.55
2018-09-29T11:01:19.164Z,73.79
2018-09-29T11:02:18.899Z,72.07
2018-09-29T11:03:19.144Z,67.58
2018-09-29T11:04:19.137Z,67.4
2018-09-29T11:05:19.136Z,66.15
2018-09-29T11:06:18.864Z,65.39
2018-09-29T11:07:18.855Z,64.5
2018-09-29T11:08:19.101Z,62.59
2018-09-29T11:09:19.095Z,61.16
2018-09-29T11:10:19.088Z,62.02
2018-09-29T11:11:19.077Z,63.54
2018-09-29T11:12:19.069Z,62.78
2018-09-29T11:13:18.804Z,62.68
2018-09-29T11:14:18.854Z,63.32
2018-09-29T11:15:19.050Z,67.33
2018-09-29T11:16:19.040Z,74.67
2018-09-29T11:17:19.036Z,76.01
2018-09-29T11:18:19.022Z,75.85
2018-09-29T11:19:19.018Z,75.37
2018-09-29T11:20:19.004Z,74.04
2018-09-29T11:21:18.994Z,76.14
2018-09-29T11:22:18.985Z,78.33
2018-09-29T11:23:18.980Z,76.04
2018-09-29T11:24:18.968Z,74.8
2018-09-29T11:25:18.958Z,77.28
2018-09-29T11:26:18.952Z,80.62
2018-09-29T11:27:18.946Z,78.52
2018-09-29T11:28:19.117Z,69.37
2018-09-29T11:29:18.669Z,69.74
2018-09-29T11:30:18.662Z,68.98
2018-09-29T11:31:18.908Z,71.84
2018-09-29T11:32:18.899Z,74.71
2018-09-29T11:33:18.890Z,72.99
2018-09-29T11:34:18.883Z,70.57
2018-09-29T11:35:18.871Z,69.9
2018-09-29T11:36:18.864Z,72.09
2018-09-29T11:37:18.859Z,72.09
2018-09-29T11:38:18.846Z,70.76
2018-09-29T11:39:19.026Z,72.96
2018-09-29T11:40:18.830Z,68.09
2018-09-29T11:41:18.828Z,69.43
2018-09-29T11:42:18.813Z,69.33
2018-09-29T11:43:18.802Z,66.28
2018-09-29T11:44:18.799Z,68.76
2018-09-29T11:45:18.783Z,67.52
2018-09-29T11:46:18.776Z,66.47
2018-09-29T11:47:18.770Z,74.48
2018-09-29T11:48:18.755Z,75.24
2018-09-29T11:49:18.753Z,74.96
2018-09-29T11:50:18.738Z,72.38
2018-09-29T11:51:18.734Z,74.96
2018-09-29T11:52:18.733Z,75.72
2018-09-29T11:53:18.717Z,70.28
2018-09-29T11:54:18.703Z,69.43
2018-09-29T11:55:18.695Z,68.09
2018-09-29T11:56:18.874Z,70.09
2018-09-29T11:57:18.678Z,68.66
2018-09-29T11:58:18.669Z,67.9
2018-09-29T11:59:18.661Z,69.04
2018-09-29T12:00:18.651Z,70.47
2018-09-29T12:01:18.646Z,68.66
2018-09-29T12:02:18.871Z,71.23
2018-09-29T12:03:18.630Z,72.19
2018-09-29T12:04:18.617Z,74.29
2018-09-29T12:05:18.607Z,75.81
2018-09-29T12:06:18.752Z,71.81
2018-09-29T12:07:18.891Z,70.86
2018-09-29T12:08:18.325Z,71.91
2018-09-29T12:09:18.575Z,76.96
2018-09-29T12:10:18.575Z,82.83
2018-09-29T12:11:18.295Z,77.62
2018-09-29T12:12:18.543Z,76.96
2018-09-29T12:13:18.539Z,80.49
2018-09-29T12:14:18.526Z,80.58
2018-09-29T12:15:18.517Z,81.92
2018-09-29T12:16:18.517Z,81.06
2018-09-29T12:17:18.243Z,81.25
2018-09-29T12:18:18.492Z,80.77
2018-09-29T12:19:18.479Z,80.68
2018-09-29T12:20:18.474Z,80.96
2018-09-29T12:21:18.467Z,79.35
2018-09-29T12:22:18.574Z,77.06
2018-09-29T12:23:18.445Z,76.1
2018-09-29T12:24:18.180Z,78.39
2018-09-29T12:25:18.430Z,71.72
2018-09-29T12:26:18.164Z,68.66
2018-09-29T12:27:18.410Z,72.76
2018-09-29T12:28:18.146Z,72.48
2018-09-29T12:29:18.451Z,72.19
2018-09-29T12:30:18.383Z,71.91
2018-09-29T12:31:18.379Z,74.77
2018-09-29T12:32:18.112Z,80.96
2018-09-29T12:33:18.354Z,78.58
2018-09-29T12:34:18.348Z,74.77
2018-09-29T12:35:18.348Z,75.62
2018-09-29T12:36:18.075Z,70.67
2018-09-29T12:37:18.086Z,71.33
2018-09-29T12:38:18.314Z,73.14
2018-09-29T12:39:18.307Z,75.43
2018-09-29T12:40:18.304Z,71.52
2018-09-29T12:41:18.032Z,69.33
2018-09-29T12:42:18.276Z,70.57
2018-09-29T12:43:18.015Z,70.86
2018-09-29T12:44:18.045Z,73.24
2018-09-29T12:45:18.250Z,70.57
2018-09-29T12:46:18.250Z,70.67
2018-09-29T12:47:18.292Z,72.76
2018-09-29T12:48:17.968Z,76.29
2018-09-29T12:49:18.219Z,78.86
2018-09-29T12:50:18.448Z,76.29
2018-09-29T12:51:18.245Z,79.82
2018-09-29T12:52:18.188Z,81.73
2018-09-29T12:53:18.193Z,76.01
2018-09-29T12:54:18.173Z,77.34
2018-09-29T12:55:18.173Z,82.01
2018-09-29T12:56:18.158Z,80.58
2018-09-29T12:57:18.150Z,77.72
2018-09-29T12:58:18.151Z,79.72
2018-09-29T12:59:18.134Z,80.3
2018-09-29T13:00:18.116Z,82.11
2018-09-29T13:01:18.110Z,82.97
2018-09-29T13:02:18.106Z,82.49
2018-09-29T13:03:18.094Z,78.86
2018-09-29T13:04:17.830Z,79.35
2018-09-29T13:05:18.328Z,81.35
2018-09-29T13:06:18.067Z,86.69
2018-09-29T13:07:18.054Z,91.17
2018-09-29T13:08:18.045Z,95.37
2018-09-29T13:09:18.036Z,91.17
2018-09-29T13:10:18.044Z,88.4
2018-09-29T13:11:18.021Z,90.12
2018-09-29T13:12:18.014Z,90.59
2018-09-29T13:13:18.006Z,87.45
2018-09-29T13:14:18.004Z,87.64
2018-09-29T13:15:17.993Z,84.11
2018-09-29T13:16:17.980Z,84.11
2018-09-29T13:17:17.968Z,84.88
2018-09-29T13:18:17.956Z,83.25
2018-09-29T13:19:17.948Z,81.25
2018-09-29T13:20:17.945Z,81.92
2018-09-29T13:21:17.931Z,83.73
2018-09-29T13:22:17.920Z,86.69
2018-09-29T13:23:17.914Z,86.88
2018-09-29T13:24:17.906Z,80.87
2018-09-29T13:25:17.897Z,81.73
2018-09-29T13:26:17.896Z,82.97
2018-09-29T13:27:17.884Z,84.4
2018-09-29T13:28:17.877Z,83.44
2018-09-29T13:29:17.861Z,81.25
2018-09-29T13:30:17.857Z,79.53
2018-09-29T13:31:17.588Z,81.54
2018-09-29T13:32:17.833Z,80.2
2018-09-29T13:33:17.825Z,78.96
2018-09-29T13:34:17.818Z,82.2
2018-09-29T13:35:17.808Z,77.91
2018-09-29T13:36:17.804Z,75.34
2018-09-29T13:37:17.793Z,79.35
2018-09-29T13:38:17.785Z,76.96
2018-09-29T13:39:17.772Z,77.91
2018-09-29T13:40:17.767Z,79.91
2018-09-29T13:41:17.753Z,78.86
2018-09-29T13:42:17.746Z,78.49
2018-09-29T13:43:17.745Z,75.05
2018-09-29T13:44:17.728Z,73.24
2018-09-29T13:45:17.720Z,72.48
2018-09-29T13:46:17.756Z,73.33
2018-09-29T13:47:17.705Z,75.81
2018-09-29T13:48:17.697Z,76.1
2018-09-29T13:49:17.685Z,73.91
2018-09-29T13:50:17.673Z,73.33
2018-09-29T13:51:17.414Z,74.19
2018-09-29T13:52:17.657Z,81.82
2018-09-29T13:53:17.651Z,84.88
2018-09-29T13:54:17.670Z,79.44
2018-09-29T13:55:17.377Z,80.39